sensor_id;sensor_type;location;lat;lon;timestamp;temperature;humidity
12622;DHT22;6376;48.182;-1.644;2023-05-28T00:00:10;18.70;76.00
12622;DHT22;6376;48.182;-1.644;2023-05-28T00:02:36;18.70;76.10
12622;DHT22;6376;48.182;-1.644;2023-05-28T00:05:03;18.70;76.00
12622;DHT22;6376;48.182;-1.644;2023-05-28T00:07:29;18.70;76.00
12622;DHT22;6376;48.182;-1.644;2023-05-28T00:09:56;18.70;76.00
12622;DHT22;6376;48.182;-1.644;2023-05-28T00:12:22;18.70;76.10
12622;DHT22;6376;48.182;-1.644;2023-05-28T00:14:48;18.60;76.00
12622;DHT22;6376;48.182;-1.644;2023-05-28T00:17:14;18.70;76.10
12622;DHT22;6376;48.182;-1.644;2023-05-28T00:19:41;18.60;76.00
12622;DHT22;6376;48.182;-1.644;2023-05-28T00:22:07;18.60;76.00
12622;DHT22;6376;48.182;-1.644;2023-05-28T00:24:33;18.60;76.10
12622;DHT22;6376;48.182;-1.644;2023-05-28T00:26:58;18.60;76.10
12622;DHT22;6376;48.182;-1.644;2023-05-28T00:29:24;18.60;76.30
12622;DHT22;6376;48.182;-1.644;2023-05-28T00:31:52;18.60;76.30
12622;DHT22;6376;48.182;-1.644;2023-05-28T00:34:21;18.60;76.10
12622;DHT22;6376;48.182;-1.644;2023-05-28T00:36:47;18.50;76.10
12622;DHT22;6376;48.182;-1.644;2023-05-28T00:39:14;18.50;76.10
12622;DHT22;6376;48.182;-1.644;2023-05-28T00:41:40;18.50;76.10
12622;DHT22;6376;48.182;-1.644;2023-05-28T00:44:06;18.50;76.20
12622;DHT22;6376;48.182;-1.644;2023-05-28T00:46:31;18.50;76.30
12622;DHT22;6376;48.182;-1.644;2023-05-28T00:48:57;18.50;76.40
12622;DHT22;6376;48.182;-1.644;2023-05-28T00:51:23;18.50;76.50
12622;DHT22;6376;48.182;-1.644;2023-05-28T00:53:49;18.50;76.60
12622;DHT22;6376;48.182;-1.644;2023-05-28T00:56:15;18.40;76.40
12622;DHT22;6376;48.182;-1.644;2023-05-28T00:58:42;18.40;76.30
12622;DHT22;6376;48.182;-1.644;2023-05-28T01:01:09;18.40;76.40
12622;DHT22;6376;48.182;-1.644;2023-05-28T01:03:37;18.40;76.50
12622;DHT22;6376;48.182;-1.644;2023-05-28T01:06:07;18.40;76.40
12622;DHT22;6376;48.182;-1.644;2023-05-28T01:08:35;18.40;76.40
12622;DHT22;6376;48.182;-1.644;2023-05-28T01:11:02;18.40;76.50
12622;DHT22;6376;48.182;-1.644;2023-05-28T01:13:29;18.40;76.70
12622;DHT22;6376;48.182;-1.644;2023-05-28T01:15:55;18.30;76.70
12622;DHT22;6376;48.182;-1.644;2023-05-28T01:18:21;18.30;76.60
12622;DHT22;6376;48.182;-1.644;2023-05-28T01:20:46;18.40;76.60
12622;DHT22;6376;48.182;-1.644;2023-05-28T01:23:19;18.40;76.70
12622;DHT22;6376;48.182;-1.644;2023-05-28T01:25:52;18.40;76.60
12622;DHT22;6376;48.182;-1.644;2023-05-28T01:28:20;18.30;76.50
12622;DHT22;6376;48.182;-1.644;2023-05-28T01:30:46;18.30;76.50
12622;DHT22;6376;48.182;-1.644;2023-05-28T01:33:12;18.30;76.60
12622;DHT22;6376;48.182;-1.644;2023-05-28T01:35:39;18.30;76.60
12622;DHT22;6376;48.182;-1.644;2023-05-28T01:38:06;18.30;76.70
12622;DHT22;6376;48.182;-1.644;2023-05-28T01:40:33;18.30;76.60
12622;DHT22;6376;48.182;-1.644;2023-05-28T01:43:01;18.30;76.60
12622;DHT22;6376;48.182;-1.644;2023-05-28T01:45:27;18.30;76.60
12622;DHT22;6376;48.182;-1.644;2023-05-28T01:47:53;18.20;76.80
12622;DHT22;6376;48.182;-1.644;2023-05-28T01:50:19;18.20;76.80
12622;DHT22;6376;48.182;-1.644;2023-05-28T01:52:45;18.20;76.80
12622;DHT22;6376;48.182;-1.644;2023-05-28T01:55:11;18.20;76.80
12622;DHT22;6376;48.182;-1.644;2023-05-28T01:57:39;18.20;76.90
12622;DHT22;6376;48.182;-1.644;2023-05-28T02:00:06;18.20;76.80
12622;DHT22;6376;48.182;-1.644;2023-05-28T02:02:33;18.20;76.80
12622;DHT22;6376;48.182;-1.644;2023-05-28T02:04:59;18.20;76.80
12622;DHT22;6376;48.182;-1.644;2023-05-28T02:07:25;18.20;76.80
12622;DHT22;6376;48.182;-1.644;2023-05-28T02:09:51;18.20;76.90
12622;DHT22;6376;48.182;-1.644;2023-05-28T02:12:16;18.20;76.90
12622;DHT22;6376;48.182;-1.644;2023-05-28T02:14:43;18.20;76.90
12622;DHT22;6376;48.182;-1.644;2023-05-28T02:17:09;18.20;76.90
12622;DHT22;6376;48.182;-1.644;2023-05-28T02:19:35;18.10;76.90
12622;DHT22;6376;48.182;-1.644;2023-05-28T02:22:01;18.10;77.10
12622;DHT22;6376;48.182;-1.644;2023-05-28T02:24:29;18.10;77.10
12622;DHT22;6376;48.182;-1.644;2023-05-28T02:26:55;18.10;77.00
12622;DHT22;6376;48.182;-1.644;2023-05-28T02:29:20;18.10;77.10
12622;DHT22;6376;48.182;-1.644;2023-05-28T02:31:46;18.10;77.10
12622;DHT22;6376;48.182;-1.644;2023-05-28T02:34:11;18.10;77.10
12622;DHT22;6376;48.182;-1.644;2023-05-28T02:36:37;18.10;76.90
12622;DHT22;6376;48.182;-1.644;2023-05-28T02:39:03;18.00;76.90
12622;DHT22;6376;48.182;-1.644;2023-05-28T02:41:29;18.00;76.90
12622;DHT22;6376;48.182;-1.644;2023-05-28T02:43:54;18.00;77.00
12622;DHT22;6376;48.182;-1.644;2023-05-28T02:46:20;18.00;77.10
12622;DHT22;6376;48.182;-1.644;2023-05-28T02:48:46;18.00;77.10
12622;DHT22;6376;48.182;-1.644;2023-05-28T02:51:11;18.00;77.20
12622;DHT22;6376;48.182;-1.644;2023-05-28T02:53:37;18.00;77.10
12622;DHT22;6376;48.182;-1.644;2023-05-28T02:56:03;18.00;77.20
12622;DHT22;6376;48.182;-1.644;2023-05-28T02:58:29;18.00;77.20
12622;DHT22;6376;48.182;-1.644;2023-05-28T03:00:55;18.00;77.30
12622;DHT22;6376;48.182;-1.644;2023-05-28T03:03:21;17.90;77.20
12622;DHT22;6376;48.182;-1.644;2023-05-28T03:05:48;17.90;77.20
12622;DHT22;6376;48.182;-1.644;2023-05-28T03:08:14;17.90;77.20
12622;DHT22;6376;48.182;-1.644;2023-05-28T03:10:40;18.00;77.20
12622;DHT22;6376;48.182;-1.644;2023-05-28T03:13:05;17.90;77.30
12622;DHT22;6376;48.182;-1.644;2023-05-28T03:15:31;17.90;77.20
12622;DHT22;6376;48.182;-1.644;2023-05-28T03:17:57;17.90;77.30
12622;DHT22;6376;48.182;-1.644;2023-05-28T03:20:22;17.90;77.30
12622;DHT22;6376;48.182;-1.644;2023-05-28T03:22:49;17.90;77.40
12622;DHT22;6376;48.182;-1.644;2023-05-28T03:25:20;17.90;77.40
12622;DHT22;6376;48.182;-1.644;2023-05-28T03:27:46;17.90;77.20
12622;DHT22;6376;48.182;-1.644;2023-05-28T03:30:12;17.90;77.30
12622;DHT22;6376;48.182;-1.644;2023-05-28T03:32:39;17.90;77.30
12622;DHT22;6376;48.182;-1.644;2023-05-28T03:35:05;17.90;77.50
12622;DHT22;6376;48.182;-1.644;2023-05-28T03:37:31;17.90;77.50
12622;DHT22;6376;48.182;-1.644;2023-05-28T03:39:57;17.90;77.50
12622;DHT22;6376;48.182;-1.644;2023-05-28T03:42:23;17.90;77.60
12622;DHT22;6376;48.182;-1.644;2023-05-28T03:44:48;17.80;77.50
12622;DHT22;6376;48.182;-1.644;2023-05-28T03:47:14;17.80;77.60
12622;DHT22;6376;48.182;-1.644;2023-05-28T03:49:39;17.80;77.60
12622;DHT22;6376;48.182;-1.644;2023-05-28T03:52:05;17.80;77.60
12622;DHT22;6376;48.182;-1.644;2023-05-28T03:54:31;17.80;77.70
12622;DHT22;6376;48.182;-1.644;2023-05-28T03:56:57;17.80;77.70
12622;DHT22;6376;48.182;-1.644;2023-05-28T03:59:23;17.80;77.80
12622;DHT22;6376;48.182;-1.644;2023-05-28T04:01:49;17.70;77.80
12622;DHT22;6376;48.182;-1.644;2023-05-28T04:04:14;17.80;77.80
12622;DHT22;6376;48.182;-1.644;2023-05-28T04:06:41;17.70;77.80
12622;DHT22;6376;48.182;-1.644;2023-05-28T04:09:07;17.70;77.80
12622;DHT22;6376;48.182;-1.644;2023-05-28T04:11:34;17.70;77.90
12622;DHT22;6376;48.182;-1.644;2023-05-28T04:14:00;17.70;77.80
12622;DHT22;6376;48.182;-1.644;2023-05-28T04:16:26;17.70;78.00
12622;DHT22;6376;48.182;-1.644;2023-05-28T04:18:52;17.70;77.80
12622;DHT22;6376;48.182;-1.644;2023-05-28T04:21:20;17.70;78.00
12622;DHT22;6376;48.182;-1.644;2023-05-28T04:23:46;17.70;78.00
12622;DHT22;6376;48.182;-1.644;2023-05-28T04:26:12;17.70;78.00
12622;DHT22;6376;48.182;-1.644;2023-05-28T04:28:38;17.70;78.00
12622;DHT22;6376;48.182;-1.644;2023-05-28T04:31:04;17.70;77.90
12622;DHT22;6376;48.182;-1.644;2023-05-28T04:33:30;17.60;78.70
12622;DHT22;6376;48.182;-1.644;2023-05-28T04:35:56;17.60;78.00
12622;DHT22;6376;48.182;-1.644;2023-05-28T04:38:22;17.60;78.00
12622;DHT22;6376;48.182;-1.644;2023-05-28T04:40:48;17.60;78.00
12622;DHT22;6376;48.182;-1.644;2023-05-28T04:43:17;17.60;78.00
12622;DHT22;6376;48.182;-1.644;2023-05-28T04:45:43;17.60;78.00
12622;DHT22;6376;48.182;-1.644;2023-05-28T04:48:09;17.60;78.00
12622;DHT22;6376;48.182;-1.644;2023-05-28T04:50:36;17.60;78.00
12622;DHT22;6376;48.182;-1.644;2023-05-28T04:53:01;17.60;78.00
12622;DHT22;6376;48.182;-1.644;2023-05-28T04:55:27;17.60;78.10
12622;DHT22;6376;48.182;-1.644;2023-05-28T04:57:53;17.60;78.00
12622;DHT22;6376;48.182;-1.644;2023-05-28T05:00:19;17.60;78.10
12622;DHT22;6376;48.182;-1.644;2023-05-28T05:02:45;17.60;78.00
12622;DHT22;6376;48.182;-1.644;2023-05-28T05:05:11;17.50;78.00
12622;DHT22;6376;48.182;-1.644;2023-05-28T05:07:38;17.60;78.00
12622;DHT22;6376;48.182;-1.644;2023-05-28T05:10:08;17.50;78.00
12622;DHT22;6376;48.182;-1.644;2023-05-28T05:12:34;17.60;78.10
12622;DHT22;6376;48.182;-1.644;2023-05-28T05:14:59;17.60;78.10
12622;DHT22;6376;48.182;-1.644;2023-05-28T05:17:25;17.60;78.00
12622;DHT22;6376;48.182;-1.644;2023-05-28T05:19:51;17.60;78.10
12622;DHT22;6376;48.182;-1.644;2023-05-28T05:22:16;17.60;78.10
12622;DHT22;6376;48.182;-1.644;2023-05-28T05:24:42;17.50;78.00
12622;DHT22;6376;48.182;-1.644;2023-05-28T05:27:07;17.50;78.10
12622;DHT22;6376;48.182;-1.644;2023-05-28T05:29:33;17.50;78.20
12622;DHT22;6376;48.182;-1.644;2023-05-28T05:31:59;17.50;78.20
12622;DHT22;6376;48.182;-1.644;2023-05-28T05:34:24;17.50;78.20
12622;DHT22;6376;48.182;-1.644;2023-05-28T05:36:50;17.50;78.20
12622;DHT22;6376;48.182;-1.644;2023-05-28T05:39:15;17.50;78.20
12622;DHT22;6376;48.182;-1.644;2023-05-28T05:41:41;17.50;78.20
12622;DHT22;6376;48.182;-1.644;2023-05-28T05:44:07;17.50;78.30
12622;DHT22;6376;48.182;-1.644;2023-05-28T05:46:32;17.50;78.30
12622;DHT22;6376;48.182;-1.644;2023-05-28T05:48:58;17.50;78.20
12622;DHT22;6376;48.182;-1.644;2023-05-28T05:51:23;17.50;78.20
12622;DHT22;6376;48.182;-1.644;2023-05-28T05:53:49;17.50;78.20
12622;DHT22;6376;48.182;-1.644;2023-05-28T05:56:15;17.50;78.20
12622;DHT22;6376;48.182;-1.644;2023-05-28T05:58:41;17.50;78.20
12622;DHT22;6376;48.182;-1.644;2023-05-28T06:01:08;17.50;78.20
12622;DHT22;6376;48.182;-1.644;2023-05-28T06:03:34;17.50;78.20
12622;DHT22;6376;48.182;-1.644;2023-05-28T06:06:00;17.50;78.30
12622;DHT22;6376;48.182;-1.644;2023-05-28T06:08:26;17.50;78.20
12622;DHT22;6376;48.182;-1.644;2023-05-28T06:10:51;17.50;78.20
12622;DHT22;6376;48.182;-1.644;2023-05-28T06:13:17;17.50;78.30
12622;DHT22;6376;48.182;-1.644;2023-05-28T06:15:43;17.50;78.20
12622;DHT22;6376;48.182;-1.644;2023-05-28T06:18:10;17.50;78.00
12622;DHT22;6376;48.182;-1.644;2023-05-28T06:20:36;17.50;78.10
12622;DHT22;6376;48.182;-1.644;2023-05-28T06:23:02;17.50;78.20
12622;DHT22;6376;48.182;-1.644;2023-05-28T06:25:28;17.50;78.20
12622;DHT22;6376;48.182;-1.644;2023-05-28T06:27:53;17.50;78.20
12622;DHT22;6376;48.182;-1.644;2023-05-28T06:30:19;17.60;78.30
12622;DHT22;6376;48.182;-1.644;2023-05-28T06:32:45;17.60;78.30
12622;DHT22;6376;48.182;-1.644;2023-05-28T06:35:10;17.60;78.20
12622;DHT22;6376;48.182;-1.644;2023-05-28T06:37:36;17.60;78.30
12622;DHT22;6376;48.182;-1.644;2023-05-28T06:40:02;17.50;78.20
12622;DHT22;6376;48.182;-1.644;2023-05-28T06:42:31;17.60;78.30
12622;DHT22;6376;48.182;-1.644;2023-05-28T06:44:57;17.60;78.20
12622;DHT22;6376;48.182;-1.644;2023-05-28T06:47:24;17.60;78.10
12622;DHT22;6376;48.182;-1.644;2023-05-28T06:49:50;17.60;78.20
12622;DHT22;6376;48.182;-1.644;2023-05-28T06:52:16;17.60;78.30
12622;DHT22;6376;48.182;-1.644;2023-05-28T06:54:44;17.60;78.10
12622;DHT22;6376;48.182;-1.644;2023-05-28T06:57:10;17.60;78.10
12622;DHT22;6376;48.182;-1.644;2023-05-28T06:59:35;17.70;78.30
12622;DHT22;6376;48.182;-1.644;2023-05-28T07:02:01;17.60;78.20
12622;DHT22;6376;48.182;-1.644;2023-05-28T07:04:27;17.60;78.10
12622;DHT22;6376;48.182;-1.644;2023-05-28T07:06:53;17.60;78.80
12622;DHT22;6376;48.182;-1.644;2023-05-28T07:09:19;17.60;78.10
12622;DHT22;6376;48.182;-1.644;2023-05-28T07:11:44;17.70;78.00
12622;DHT22;6376;48.182;-1.644;2023-05-28T07:14:10;17.70;78.00
12622;DHT22;6376;48.182;-1.644;2023-05-28T07:16:35;17.70;78.30
12622;DHT22;6376;48.182;-1.644;2023-05-28T07:19:01;17.70;78.10
12622;DHT22;6376;48.182;-1.644;2023-05-28T07:21:27;17.70;78.10
12622;DHT22;6376;48.182;-1.644;2023-05-28T07:23:52;17.70;78.30
12622;DHT22;6376;48.182;-1.644;2023-05-28T07:26:18;17.80;78.10
12622;DHT22;6376;48.182;-1.644;2023-05-28T07:28:43;17.70;78.10
12622;DHT22;6376;48.182;-1.644;2023-05-28T07:31:09;17.70;78.40
12622;DHT22;6376;48.182;-1.644;2023-05-28T07:33:35;17.80;78.40
12622;DHT22;6376;48.182;-1.644;2023-05-28T07:36:01;17.80;78.20
12622;DHT22;6376;48.182;-1.644;2023-05-28T07:38:27;17.80;78.00
12622;DHT22;6376;48.182;-1.644;2023-05-28T07:40:52;17.80;78.00
12622;DHT22;6376;48.182;-1.644;2023-05-28T07:43:18;17.90;77.90
12622;DHT22;6376;48.182;-1.644;2023-05-28T07:45:44;17.90;77.40
12622;DHT22;6376;48.182;-1.644;2023-05-28T07:48:09;17.90;77.10
12622;DHT22;6376;48.182;-1.644;2023-05-28T07:50:35;18.00;77.50
12622;DHT22;6376;48.182;-1.644;2023-05-28T07:53:00;18.00;77.10
12622;DHT22;6376;48.182;-1.644;2023-05-28T07:55:29;18.00;76.90
12622;DHT22;6376;48.182;-1.644;2023-05-28T07:57:54;18.00;76.80
12622;DHT22;6376;48.182;-1.644;2023-05-28T08:00:24;18.10;76.60
12622;DHT22;6376;48.182;-1.644;2023-05-28T08:02:50;18.10;76.50
12622;DHT22;6376;48.182;-1.644;2023-05-28T08:05:16;18.20;76.30
12622;DHT22;6376;48.182;-1.644;2023-05-28T08:07:42;18.20;75.90
12622;DHT22;6376;48.182;-1.644;2023-05-28T08:10:07;18.30;75.80
12622;DHT22;6376;48.182;-1.644;2023-05-28T08:12:33;18.40;75.40
12622;DHT22;6376;48.182;-1.644;2023-05-28T08:14:59;18.40;75.00
12622;DHT22;6376;48.182;-1.644;2023-05-28T08:17:25;18.50;74.70
12622;DHT22;6376;48.182;-1.644;2023-05-28T08:19:55;18.60;74.40
12622;DHT22;6376;48.182;-1.644;2023-05-28T08:22:20;18.70;73.90
12622;DHT22;6376;48.182;-1.644;2023-05-28T08:24:46;18.80;73.70
12622;DHT22;6376;48.182;-1.644;2023-05-28T08:27:11;18.90;73.20
12622;DHT22;6376;48.182;-1.644;2023-05-28T08:29:37;18.90;73.00
12622;DHT22;6376;48.182;-1.644;2023-05-28T08:32:03;19.00;72.60
12622;DHT22;6376;48.182;-1.644;2023-05-28T08:34:29;19.10;72.20
12622;DHT22;6376;48.182;-1.644;2023-05-28T08:36:54;19.30;71.70
12622;DHT22;6376;48.182;-1.644;2023-05-28T08:39:21;19.30;71.30
12622;DHT22;6376;48.182;-1.644;2023-05-28T08:41:49;19.50;70.80
12622;DHT22;6376;48.182;-1.644;2023-05-28T08:44:15;19.60;70.50
12622;DHT22;6376;48.182;-1.644;2023-05-28T08:46:41;19.70;69.60
12622;DHT22;6376;48.182;-1.644;2023-05-28T08:49:08;19.90;69.10
12622;DHT22;6376;48.182;-1.644;2023-05-28T08:51:36;20.00;68.30
12622;DHT22;6376;48.182;-1.644;2023-05-28T08:54:03;20.20;67.70
12622;DHT22;6376;48.182;-1.644;2023-05-28T08:56:28;20.40;66.90
12622;DHT22;6376;48.182;-1.644;2023-05-28T08:58:54;20.50;66.30
12622;DHT22;6376;48.182;-1.644;2023-05-28T09:01:20;20.60;65.80
12622;DHT22;6376;48.182;-1.644;2023-05-28T09:03:46;20.80;65.30
12622;DHT22;6376;48.182;-1.644;2023-05-28T09:06:12;21.00;64.30
12622;DHT22;6376;48.182;-1.644;2023-05-28T09:08:43;21.20;63.50
12622;DHT22;6376;48.182;-1.644;2023-05-28T09:11:13;21.40;62.60
12622;DHT22;6376;48.182;-1.644;2023-05-28T09:13:43;21.50;61.80
12622;DHT22;6376;48.182;-1.644;2023-05-28T09:16:10;21.80;60.90
12622;DHT22;6376;48.182;-1.644;2023-05-28T09:18:36;21.90;60.10
12622;DHT22;6376;48.182;-1.644;2023-05-28T09:21:07;22.20;59.60
12622;DHT22;6376;48.182;-1.644;2023-05-28T09:23:38;22.30;59.10
12622;DHT22;6376;48.182;-1.644;2023-05-28T09:26:07;22.40;58.80
12622;DHT22;6376;48.182;-1.644;2023-05-28T09:28:34;22.60;58.50
12622;DHT22;6376;48.182;-1.644;2023-05-28T09:31:04;22.70;58.30
12622;DHT22;6376;48.182;-1.644;2023-05-28T09:33:30;22.80;58.20
12622;DHT22;6376;48.182;-1.644;2023-05-28T09:36:00;22.80;58.20
12622;DHT22;6376;48.182;-1.644;2023-05-28T09:38:26;22.80;58.50
12622;DHT22;6376;48.182;-1.644;2023-05-28T09:40:55;22.70;58.70
12622;DHT22;6376;48.182;-1.644;2023-05-28T09:43:27;22.60;59.10
12622;DHT22;6376;48.182;-1.644;2023-05-28T09:46:09;22.30;59.80
12622;DHT22;6376;48.182;-1.644;2023-05-28T09:48:35;22.10;60.70
12622;DHT22;6376;48.182;-1.644;2023-05-28T09:51:03;21.90;61.70
12622;DHT22;6376;48.182;-1.644;2023-05-28T09:53:31;21.60;62.90
12622;DHT22;6376;48.182;-1.644;2023-05-28T09:56:00;21.30;64.30
12622;DHT22;6376;48.182;-1.644;2023-05-28T09:58:33;21.00;65.20
12622;DHT22;6376;48.182;-1.644;2023-05-28T10:01:07;20.70;66.10
12622;DHT22;6376;48.182;-1.644;2023-05-28T10:03:37;20.40;66.70
12622;DHT22;6376;48.182;-1.644;2023-05-28T10:06:06;20.30;67.30
12622;DHT22;6376;48.182;-1.644;2023-05-28T10:08:37;20.20;67.70
12622;DHT22;6376;48.182;-1.644;2023-05-28T10:11:08;20.20;68.00
12622;DHT22;6376;48.182;-1.644;2023-05-28T10:13:35;20.30;67.90
12622;DHT22;6376;48.182;-1.644;2023-05-28T10:16:01;20.20;68.00
12622;DHT22;6376;48.182;-1.644;2023-05-28T10:18:27;20.20;68.30
12622;DHT22;6376;48.182;-1.644;2023-05-28T10:20:53;20.20;69.00
12622;DHT22;6376;48.182;-1.644;2023-05-28T10:23:21;20.20;68.10
12622;DHT22;6376;48.182;-1.644;2023-05-28T10:25:47;20.20;68.30
12622;DHT22;6376;48.182;-1.644;2023-05-28T10:28:14;20.10;68.40
12622;DHT22;6376;48.182;-1.644;2023-05-28T10:30:40;20.20;68.40
12622;DHT22;6376;48.182;-1.644;2023-05-28T10:33:08;20.20;68.50
12622;DHT22;6376;48.182;-1.644;2023-05-28T10:35:34;20.20;68.60
12622;DHT22;6376;48.182;-1.644;2023-05-28T10:38:08;20.30;68.50
12622;DHT22;6376;48.182;-1.644;2023-05-28T10:40:39;20.30;68.80
12622;DHT22;6376;48.182;-1.644;2023-05-28T10:43:05;20.40;68.90
12622;DHT22;6376;48.182;-1.644;2023-05-28T10:45:38;20.30;69.00
12622;DHT22;6376;48.182;-1.644;2023-05-28T10:48:05;20.30;69.10
12622;DHT22;6376;48.182;-1.644;2023-05-28T10:50:31;20.40;69.10
12622;DHT22;6376;48.182;-1.644;2023-05-28T10:53:07;20.30;68.90
12622;DHT22;6376;48.182;-1.644;2023-05-28T10:55:52;20.30;69.00
12622;DHT22;6376;48.182;-1.644;2023-05-28T10:58:28;20.30;68.90
12622;DHT22;6376;48.182;-1.644;2023-05-28T11:01:03;20.30;68.90
12622;DHT22;6376;48.182;-1.644;2023-05-28T11:03:42;20.40;68.80
12622;DHT22;6376;48.182;-1.644;2023-05-28T11:06:09;20.40;68.70
12622;DHT22;6376;48.182;-1.644;2023-05-28T11:08:44;20.40;68.70
12622;DHT22;6376;48.182;-1.644;2023-05-28T11:11:14;20.40;68.70
12622;DHT22;6376;48.182;-1.644;2023-05-28T11:13:47;20.40;68.60
12622;DHT22;6376;48.182;-1.644;2023-05-28T11:16:17;20.40;68.60
12622;DHT22;6376;48.182;-1.644;2023-05-28T11:19:05;20.50;68.50
12622;DHT22;6376;48.182;-1.644;2023-05-28T11:21:33;20.50;68.60
12622;DHT22;6376;48.182;-1.644;2023-05-28T11:24:03;20.50;68.40
12622;DHT22;6376;48.182;-1.644;2023-05-28T11:26:29;20.50;68.40
12622;DHT22;6376;48.182;-1.644;2023-05-28T11:28:55;20.50;68.40
12622;DHT22;6376;48.182;-1.644;2023-05-28T11:31:21;20.50;68.30
12622;DHT22;6376;48.182;-1.644;2023-05-28T11:33:50;20.50;68.50
12622;DHT22;6376;48.182;-1.644;2023-05-28T11:36:15;20.50;68.40
12622;DHT22;6376;48.182;-1.644;2023-05-28T11:38:41;20.60;68.40
12622;DHT22;6376;48.182;-1.644;2023-05-28T11:41:07;20.50;68.30
12622;DHT22;6376;48.182;-1.644;2023-05-28T11:43:32;20.60;68.40
12622;DHT22;6376;48.182;-1.644;2023-05-28T11:45:58;20.60;68.40
12622;DHT22;6376;48.182;-1.644;2023-05-28T11:48:26;20.60;68.30
12622;DHT22;6376;48.182;-1.644;2023-05-28T11:51:00;20.60;68.30
12622;DHT22;6376;48.182;-1.644;2023-05-28T11:53:41;20.60;68.30
12622;DHT22;6376;48.182;-1.644;2023-05-28T11:56:11;20.70;68.40
12622;DHT22;6376;48.182;-1.644;2023-05-28T11:58:38;20.70;68.20
12622;DHT22;6376;48.182;-1.644;2023-05-28T12:01:06;20.70;68.20
12622;DHT22;6376;48.182;-1.644;2023-05-28T12:03:32;20.60;68.20
12622;DHT22;6376;48.182;-1.644;2023-05-28T12:05:57;20.60;68.20
12622;DHT22;6376;48.182;-1.644;2023-05-28T12:08:23;20.60;68.20
12622;DHT22;6376;48.182;-1.644;2023-05-28T12:10:49;20.70;68.20
12622;DHT22;6376;48.182;-1.644;2023-05-28T12:13:15;20.70;68.30
12622;DHT22;6376;48.182;-1.644;2023-05-28T12:15:41;20.70;68.20
12622;DHT22;6376;48.182;-1.644;2023-05-28T12:18:06;20.70;68.20
12622;DHT22;6376;48.182;-1.644;2023-05-28T12:20:42;20.70;68.30
12622;DHT22;6376;48.182;-1.644;2023-05-28T12:28:11;20.70;68.30
12622;DHT22;6376;48.182;-1.644;2023-05-28T12:30:38;20.70;68.30
12622;DHT22;6376;48.182;-1.644;2023-05-28T12:33:04;20.70;68.30
12622;DHT22;6376;48.182;-1.644;2023-05-28T12:35:30;20.70;68.30
12622;DHT22;6376;48.182;-1.644;2023-05-28T12:37:56;20.70;68.30
12622;DHT22;6376;48.182;-1.644;2023-05-28T12:40:22;20.70;68.30
12622;DHT22;6376;48.182;-1.644;2023-05-28T12:42:47;20.70;68.30
12622;DHT22;6376;48.182;-1.644;2023-05-28T12:45:13;20.70;68.10
12622;DHT22;6376;48.182;-1.644;2023-05-28T12:47:39;20.70;68.30
12622;DHT22;6376;48.182;-1.644;2023-05-28T12:50:05;20.70;68.40
12622;DHT22;6376;48.182;-1.644;2023-05-28T12:52:31;20.70;68.30
12622;DHT22;6376;48.182;-1.644;2023-05-28T12:54:59;20.70;68.30
12622;DHT22;6376;48.182;-1.644;2023-05-28T12:57:24;20.70;68.40
12622;DHT22;6376;48.182;-1.644;2023-05-28T12:59:50;20.70;68.40
12622;DHT22;6376;48.182;-1.644;2023-05-28T13:02:16;20.70;68.50
12622;DHT22;6376;48.182;-1.644;2023-05-28T13:04:41;20.70;68.60
12622;DHT22;6376;48.182;-1.644;2023-05-28T13:07:07;20.70;68.60
12622;DHT22;6376;48.182;-1.644;2023-05-28T13:09:35;20.70;68.60
12622;DHT22;6376;48.182;-1.644;2023-05-28T13:12:01;20.60;68.70
12622;DHT22;6376;48.182;-1.644;2023-05-28T13:14:28;20.70;68.70
12622;DHT22;6376;48.182;-1.644;2023-05-28T13:16:54;20.60;68.80
12622;DHT22;6376;48.182;-1.644;2023-05-28T13:19:21;20.60;68.80
12622;DHT22;6376;48.182;-1.644;2023-05-28T13:21:46;20.60;68.90
12622;DHT22;6376;48.182;-1.644;2023-05-28T13:24:12;20.60;69.00
12622;DHT22;6376;48.182;-1.644;2023-05-28T13:26:38;20.60;68.90
12622;DHT22;6376;48.182;-1.644;2023-05-28T13:29:04;20.60;69.00
12622;DHT22;6376;48.182;-1.644;2023-05-28T13:31:30;20.60;69.10
12622;DHT22;6376;48.182;-1.644;2023-05-28T13:33:56;20.60;69.20
12622;DHT22;6376;48.182;-1.644;2023-05-28T13:36:23;20.50;69.30
12622;DHT22;6376;48.182;-1.644;2023-05-28T13:38:49;20.50;69.20
12622;DHT22;6376;48.182;-1.644;2023-05-28T13:41:15;20.50;69.50
12622;DHT22;6376;48.182;-1.644;2023-05-28T13:43:41;20.50;69.50
12622;DHT22;6376;48.182;-1.644;2023-05-28T13:46:07;20.50;69.50
12622;DHT22;6376;48.182;-1.644;2023-05-28T13:48:34;20.50;69.50
12622;DHT22;6376;48.182;-1.644;2023-05-28T13:51:00;20.50;69.60
12622;DHT22;6376;48.182;-1.644;2023-05-28T13:53:30;20.50;69.60
12622;DHT22;6376;48.182;-1.644;2023-05-28T13:55:56;20.50;69.60
12622;DHT22;6376;48.182;-1.644;2023-05-28T13:58:23;20.50;69.70
12622;DHT22;6376;48.182;-1.644;2023-05-28T14:00:49;20.50;69.70
12622;DHT22;6376;48.182;-1.644;2023-05-28T14:03:15;20.50;69.70
12622;DHT22;6376;48.182;-1.644;2023-05-28T14:05:43;20.50;69.80
12622;DHT22;6376;48.182;-1.644;2023-05-28T14:08:10;20.50;69.90
12622;DHT22;6376;48.182;-1.644;2023-05-28T14:10:36;20.40;69.90
12622;DHT22;6376;48.182;-1.644;2023-05-28T14:13:01;20.50;69.90
12622;DHT22;6376;48.182;-1.644;2023-05-28T14:15:27;20.40;69.80
12622;DHT22;6376;48.182;-1.644;2023-05-28T14:17:53;20.50;70.00
12622;DHT22;6376;48.182;-1.644;2023-05-28T14:20:18;20.40;69.90
12622;DHT22;6376;48.182;-1.644;2023-05-28T14:22:44;20.40;70.00
12622;DHT22;6376;48.182;-1.644;2023-05-28T14:25:10;20.40;70.00
12622;DHT22;6376;48.182;-1.644;2023-05-28T14:27:37;20.40;70.00
12622;DHT22;6376;48.182;-1.644;2023-05-28T14:30:03;20.40;70.00
12622;DHT22;6376;48.182;-1.644;2023-05-28T14:32:29;20.40;70.00
12622;DHT22;6376;48.182;-1.644;2023-05-28T14:34:55;20.50;70.00
12622;DHT22;6376;48.182;-1.644;2023-05-28T14:37:21;20.50;70.00
12622;DHT22;6376;48.182;-1.644;2023-05-28T14:39:46;20.50;70.00
12622;DHT22;6376;48.182;-1.644;2023-05-28T14:42:12;20.40;70.00
12622;DHT22;6376;48.182;-1.644;2023-05-28T14:44:38;20.40;70.00
12622;DHT22;6376;48.182;-1.644;2023-05-28T14:47:04;20.40;70.10
12622;DHT22;6376;48.182;-1.644;2023-05-28T14:49:29;20.40;70.20
12622;DHT22;6376;48.182;-1.644;2023-05-28T14:51:56;20.40;70.20
12622;DHT22;6376;48.182;-1.644;2023-05-28T14:54:22;20.40;70.20
12622;DHT22;6376;48.182;-1.644;2023-05-28T14:56:48;20.50;70.00
12622;DHT22;6376;48.182;-1.644;2023-05-28T14:59:14;20.50;70.00
12622;DHT22;6376;48.182;-1.644;2023-05-28T15:01:39;20.50;70.10
12622;DHT22;6376;48.182;-1.644;2023-05-28T15:04:05;20.50;70.20
12622;DHT22;6376;48.182;-1.644;2023-05-28T15:06:31;20.50;70.20
12622;DHT22;6376;48.182;-1.644;2023-05-28T15:08:58;20.50;70.30
12622;DHT22;6376;48.182;-1.644;2023-05-28T15:11:24;20.60;70.30
12622;DHT22;6376;48.182;-1.644;2023-05-28T15:13:51;20.60;70.50
12622;DHT22;6376;48.182;-1.644;2023-05-28T15:16:17;20.60;70.50
12622;DHT22;6376;48.182;-1.644;2023-05-28T15:18:43;20.60;70.50
12622;DHT22;6376;48.182;-1.644;2023-05-28T15:21:09;20.60;70.60
12622;DHT22;6376;48.182;-1.644;2023-05-28T15:23:35;20.50;70.70
12622;DHT22;6376;48.182;-1.644;2023-05-28T15:26:01;20.50;70.80
12622;DHT22;6376;48.182;-1.644;2023-05-28T15:28:27;20.50;70.80
12622;DHT22;6376;48.182;-1.644;2023-05-28T15:30:53;20.50;70.90